Time;durP1;ratioP1;P1;durP2;ratioP2;P2;SDS_P1;SDS_P2;PMS_P1;PMS_P2;Temp;Humidity;BMP_temperature;BMP_pressure;BME280_temperature;BME280_humidity;BME280_pressure;Samples;Min_cycle;Max_cycle;Signal;HPM_P1;HPM_P2
2020/12/26 05:03:51;;;;;;;7.55;5.75;;;;;;;0.77;86.13;99165.67;1776982;79;22695;-70
2020/12/26 05:06:19;;;;;;;4.55;3.52;;;;;;;0.77;86.04;99174.62;1744804;82;21072;-70
2020/12/26 05:08:47;;;;;;;5.37;3.40;;;;;;;0.80;85.79;99178.88;1744829;81;21522;-71
2020/12/26 05:11:14;;;;;;;3.87;2.95;;;;;;;0.82;85.67;99186.94;1749576;82;21083;-71
2020/12/26 05:13:43;;;;;;;4.05;2.98;;;;;;;0.88;85.60;99189.90;1749615;82;20929;-71
2020/12/26 05:16:10;;;;;;;4.87;3.20;;;;;;;0.93;85.51;99186.88;1749713;82;21075;-71
2020/12/26 05:18:38;;;;;;;5.67;2.80;;;;;;;0.99;85.37;99177.89;1723283;82;21492;-71
2020/12/26 05:21:06;;;;;;;5.72;3.02;;;;;;;1.06;85.20;99177.39;1719791;83;22108;-71
2020/12/26 05:23:35;;;;;;;6.45;3.37;;;;;;;1.08;84.94;99184.20;1719638;83;21158;-71
2020/12/26 05:26:03;;;;;;;5.12;3.12;;;;;;;1.13;84.78;99188.01;1719778;83;21059;-71
2020/12/26 05:28:34;;;;;;;9.58;3.30;;;;;;;1.16;84.66;99192.69;1719744;83;21524;-71
2020/12/26 05:31:06;;;;;;;7.90;3.05;;;;;;;1.19;84.41;99192.66;1719863;83;21489;-71
2020/12/26 05:33:34;;;;;;;7.22;4.40;;;;;;;1.23;84.27;99190.47;1719914;83;21452;-71
2020/12/26 05:36:05;;;;;;;11.08;6.15;;;;;;;1.27;83.99;99190.87;1719676;83;21075;-71
2020/12/26 05:38:32;;;;;;;14.00;6.20;;;;;;;1.28;83.67;99189.16;1719722;83;21067;-71
2020/12/26 05:41:01;;;;;;;16.97;10.68;;;;;;;1.22;83.41;99201.58;1719741;83;21079;-71
2020/12/26 05:43:31;;;;;;;24.90;14.95;;;;;;;1.18;83.42;99205.48;1719742;83;21079;-71
2020/12/26 05:45:59;;;;;;;18.60;12.95;;;;;;;1.14;83.32;99205.08;1719864;83;22244;-71
2020/12/26 05:48:28;;;;;;;26.30;12.88;;;;;;;1.13;83.31;99209.78;1719738;83;21555;-71
2020/12/26 05:51:00;;;;;;;21.93;10.60;;;;;;;1.13;83.29;99213.63;1719707;83;21088;-71
2020/12/26 05:53:28;;;;;;;19.37;9.25;;;;;;;1.11;83.21;99216.63;1719850;83;21155;-71
2020/12/26 05:55:56;;;;;;;21.52;10.32;;;;;;;1.14;83.23;99214.05;1719804;82;21143;-71
2020/12/26 05:58:25;;;;;;;22.70;10.00;;;;;;;1.15;83.09;99219.59;1719700;83;21951;-71
2020/12/26 06:00:59;;;;;;;28.17;14.63;;;;;;;1.13;83.04;99213.63;1719737;83;21484;-71
2020/12/26 06:03:26;;;;;;;30.00;12.50;;;;;;;1.14;82.92;99226.42;1710382;83;21089;-71
2020/12/26 06:05:59;;;;;;;30.52;13.38;;;;;;;1.12;82.80;99228.57;1706957;84;21187;-70
2020/12/26 06:08:28;;;;;;;16.67;11.18;;;;;;;1.08;82.78;99221.77;1707026;84;21147;-71
2020/12/26 06:11:02;;;;;;;29.57;12.80;;;;;;;1.02;82.61;99220.94;1706969;84;21462;-71
2020/12/26 06:13:32;;;;;;;28.25;16.65;;;;;;;0.98;82.60;99233.38;1706818;84;21076;-71
2020/12/26 06:16:22;;;;;;;33.80;16.67;;;;;;;0.93;82.74;99244.06;1706549;83;21088;-70
2020/12/26 06:18:58;;;;;;;32.17;17.65;;;;;;;0.92;83.03;99245.36;1706504;82;21064;-69
2020/12/26 06:21:26;;;;;;;22.87;15.80;;;;;;;0.98;83.22;99253.01;1706483;84;21140;-70
2020/12/26 06:23:54;;;;;;;23.83;12.68;;;;;;;1.04;83.14;99246.54;1706374;82;21255;-70
2020/12/26 06:26:22;;;;;;;18.77;11.60;;;;;;;1.10;82.94;99252.06;1706366;82;21084;-70
2020/12/26 06:28:50;;;;;;;19.65;11.38;;;;;;;1.11;82.70;99251.20;1685100;84;21061;-70
2020/12/26 06:31:17;;;;;;;23.47;12.65;;;;;;;1.10;82.61;99254.63;1684935;84;21610;-71
2020/12/26 06:33:50;;;;;;;29.27;15.18;;;;;;;1.08;82.73;99250.79;1706445;84;21115;-72
2020/12/26 06:36:19;;;;;;;31.87;16.02;;;;;;;1.13;82.89;99258.02;1706560;84;21383;-71
2020/12/26 06:38:47;;;;;;;31.33;15.43;;;;;;;1.19;82.94;99260.98;1706472;84;21096;-71
2020/12/26 06:41:16;;;;;;;35.88;18.27;;;;;;;1.26;82.82;99258.34;1706418;83;21117;-71
2020/12/26 06:43:56;;;;;;;53.73;23.80;;;;;;;1.35;82.76;99257.00;1706374;84;21176;-71
2020/12/26 06:46:30;;;;;;;47.70;23.40;;;;;;;1.45;82.63;99255.63;1706472;84;21191;-71
2020/12/26 06:49:00;;;;;;;34.03;20.52;;;;;;;1.53;82.58;99259.84;1706495;84;22126;-70
2020/12/26 06:51:41;;;;;;;40.17;19.05;;;;;;;1.56;82.24;99258.97;1706404;84;21101;-71
2020/12/26 06:54:12;;;;;;;36.65;19.73;;;;;;;1.56;82.37;99257.26;1706443;84;21069;-71
2020/12/26 06:56:45;;;;;;;43.85;21.00;;;;;;;1.63;82.22;99268.28;1706454;84;21076;-71
2020/12/26 06:59:14;;;;;;;38.35;18.00;;;;;;;1.72;82.15;99270.78;1706438;83;21071;-71
2020/12/26 07:01:44;;;;;;;54.10;18.20;;;;;;;1.80;81.98;99273.28;1706399;84;21386;-71
2020/12/26 07:04:15;;;;;;;41.70;17.25;;;;;;;1.89;81.80;99271.90;1718263;83;21463;-71
2020/12/26 07:06:49;;;;;;;18.70;13.78;;;;;;;1.95;81.44;99265.44;1719971;83;21075;-71
2020/12/26 07:09:18;;;;;;;24.40;12.82;;;;;;;1.99;81.24;99270.53;1719795;83;21162;-71
2020/12/26 07:11:52;;;;;;;38.00;13.25;;;;;;;2.07;81.12;99265.30;1719995;83;21163;-71
2020/12/26 07:14:37;;;;;;;49.63;13.45;;;;;;;2.16;80.86;99260.52;1719945;83;21386;-70
2020/12/26 07:17:19;;;;;;;27.82;12.03;;;;;;;2.20;80.52;99269.42;1719950;82;21139;-70
2020/12/26 07:19:48;;;;;;;13.93;10.10;;;;;;;2.25;80.56;99277.92;1720067;83;21127;-70
2020/12/26 07:22:30;;;;;;;31.50;16.75;;;;;;;2.29;80.18;99292.86;1719853;83;21172;-70
2020/12/26 07:25:09;;;;;;;31.85;15.43;;;;;;;2.26;79.94;99296.73;1719946;83;21103;-70
2020/12/26 07:27:39;;;;;;;21.62;12.85;;;;;;;2.20;79.99;99300.67;1719960;83;21374;-71
2020/12/26 07:30:13;;;;;;;18.57;10.80;;;;;;;2.20;80.11;99298.11;1719921;83;21614;-70
2020/12/26 07:32:57;;;;;;;17.92;9.73;;;;;;;2.24;80.03;99303.17;1719890;83;21083;-70
2020/12/26 07:35:31;;;;;;;16.17;7.22;;;;;;;2.30;80.01;99309.96;1719957;83;21158;-71
2020/12/26 07:38:06;;;;;;;16.70;7.30;;;;;;;2.39;79.82;99302.17;1720202;83;21068;-71
2020/12/26 07:40:37;;;;;;;12.70;7.20;;;;;;;2.50;79.62;99293.05;1719955;83;21467;-71
2020/12/26 07:43:08;;;;;;;16.10;7.78;;;;;;;2.59;79.20;99289.95;1719867;83;21186;-70
2020/12/26 07:45:38;;;;;;;22.10;7.67;;;;;;;2.65;78.91;99294.99;1720033;83;21124;-70
2020/12/26 07:48:06;;;;;;;19.77;7.45;;;;;;;2.70;78.48;99295.80;1719879;83;21127;-71
2020/12/26 07:50:38;;;;;;;19.60;5.22;;;;;;;2.70;78.30;99303.50;1719877;83;21166;-70
2020/12/26 07:53:08;;;;;;;18.77;4.17;;;;;;;2.73;78.21;99312.45;1720082;83;21370;-71
2020/12/26 07:55:36;;;;;;;22.52;5.53;;;;;;;2.76;77.97;99313.70;1720017;83;21143;-71
2020/12/26 07:58:12;;;;;;;10.60;5.30;;;;;;;2.76;77.81;99316.70;1720164;83;21469;-71
2020/12/26 08:00:43;;;;;;;13.68;6.33;;;;;;;2.77;77.81;99306.84;1719921;83;21072;-71
2020/12/26 08:03:12;;;;;;;15.90;6.20;;;;;;;2.82;77.72;99315.75;1720000;83;21072;-71
2020/12/26 08:05:46;;;;;;;10.45;5.53;;;;;;;2.84;77.52;99328.14;1720229;83;21208;-71
2020/12/26 08:08:23;;;;;;;9.15;6.00;;;;;;;2.84;77.41;99325.58;1720390;82;21595;-70
2020/12/26 08:10:58;;;;;;;19.45;8.05;;;;;;;2.81;77.54;99314.91;1719715;83;21127;-72
2020/12/26 08:13:26;;;;;;;26.42;8.18;;;;;;;2.86;77.87;99312.28;1719902;83;21175;-71
2020/12/26 08:16:05;;;;;;;46.30;10.55;;;;;;;3.02;77.84;99306.06;1720060;83;21499;-71
2020/12/26 08:18:35;;;;;;;29.52;8.13;;;;;;;3.12;77.40;99303.80;1717722;82;22206;-70
2020/12/26 08:21:06;;;;;;;14.53;7.78;;;;;;;3.16;77.01;99304.61;1719984;83;21072;-71
2020/12/26 08:23:34;;;;;;;25.23;9.80;;;;;;;3.23;76.90;99312.19;1720131;83;21064;-69
2020/12/26 08:26:01;;;;;;;17.80;7.00;;;;;;;3.29;76.61;99310.83;1719998;83;21064;-71
2020/12/26 08:28:32;;;;;;;12.80;6.00;;;;;;;3.37;76.43;99304.30;1720037;82;21056;-71
2020/12/26 08:31:02;;;;;;;18.87;6.00;;;;;;;3.41;76.03;99293.92;1720065;82;21341;-71
2020/12/26 08:33:35;;;;;;;14.10;6.12;;;;;;;3.43;75.94;99304.19;1694381;83;21100;-71
2020/12/26 08:36:38;;;;;;;11.70;6.73;;;;;;;3.52;75.41;99310.92;1720261;83;21211;-71
2020/12/26 08:39:08;;;;;;;21.60;5.97;;;;;;;3.53;75.25;99305.75;1720230;83;21143;-71
2020/12/26 08:44:18;;;;;;;22.17;5.58;;;;;;;3.60;74.72;99316.34;1890203;76;22741;-71
2020/12/26 08:46:48;;;;;;;8.00;5.53;;;;;;;3.56;74.65;99312.58;1856066;77;21060;-70
2020/12/26 08:49:16;;;;;;;19.87;6.62;;;;;;;3.55;74.37;99322.02;1861054;77;21411;-71
2020/12/26 08:51:44;;;;;;;27.25;7.95;;;;;;;3.57;74.34;99327.13;1860877;77;20975;-70
2020/12/26 08:54:20;;;;;;;16.30;7.37;;;;;;;3.56;74.29;99338.29;1860920;77;20922;-71
2020/12/26 08:56:49;;;;;;;20.55;6.83;;;;;;;3.59;74.28;99340.82;1860979;77;20922;-71
2020/12/26 08:59:29;;;;;;;26.12;8.75;;;;;;;3.57;73.94;99336.98;1860976;77;21033;-72
2020/12/26 09:01:57;;;;;;;31.82;9.68;;;;;;;3.56;74.05;99339.58;1860985;77;21933;-72
2020/12/26 09:04:29;;;;;;;20.32;7.97;;;;;;;3.55;73.92;99336.59;1860816;77;21948;-71
2020/12/26 09:06:58;;;;;;;10.28;6.45;;;;;;;3.59;73.91;99336.97;1860942;77;21084;-71
2020/12/26 09:09:29;;;;;;;19.52;4.92;;;;;;;3.61;73.53;99336.03;1860901;77;21473;-70
2020/12/26 09:12:03;;;;;;;19.37;8.60;;;;;;;3.61;73.02;99332.18;1860875;77;21781;-72
2020/12/26 09:14:31;;;;;;;17.12;6.50;;;;;;;3.63;73.00;99328.30;1860889;77;21360;-71
2020/12/26 09:17:02;;;;;;;13.72;7.20;;;;;;;3.67;72.88;99333.38;1855132;77;21628;-71
2020/12/26 09:19:46;;;;;;;26.97;6.95;;;;;;;3.66;72.90;99339.83;1827272;78;21579;-71
2020/12/26 09:22:14;;;;;;;24.00;5.70;;;;;;;3.68;72.82;99344.08;1827139;78;21092;-71
2020/12/26 09:24:43;;;;;;;18.48;4.83;;;;;;;3.72;72.92;99333.31;1827248;78;21711;-71
2020/12/26 09:27:18;;;;;;;22.90;4.87;;;;;;;3.76;72.44;99335.82;1827217;78;22253;-72
2020/12/26 09:29:46;;;;;;;18.05;4.60;;;;;;;3.78;72.57;99343.08;1827220;78;21496;-71
2020/12/26 09:32:16;;;;;;;21.37;4.70;;;;;;;3.81;72.76;99346.86;1827154;78;21104;-71
2020/12/26 09:34:43;;;;;;;7.92;4.62;;;;;;;3.81;72.83;99349.44;1827206;78;21629;-70
2020/12/26 09:37:11;;;;;;;20.70;6.08;;;;;;;3.79;73.01;99348.64;1827188;78;21556;-70
2020/12/26 09:39:39;;;;;;;13.40;6.53;;;;;;;3.75;73.30;99346.98;1827108;78;21402;-71
2020/12/26 09:42:07;;;;;;;12.33;4.55;;;;;;;3.75;73.59;99342.27;1826990;78;21175;-71
2020/12/26 09:44:35;;;;;;;18.87;6.22;;;;;;;3.74;73.86;99340.14;1827130;78;21056;-71
2020/12/26 09:47:04;;;;;;;12.50;5.70;;;;;;;3.79;74.09;99348.64;1827184;78;21770;-71
2020/12/26 09:49:32;;;;;;;12.90;6.08;;;;;;;3.83;74.01;99353.27;1827243;78;21536;-71
2020/12/26 09:51:59;;;;;;;11.10;6.42;;;;;;;3.81;74.06;99360.16;1827175;78;23548;-70
2020/12/26 09:54:27;;;;;;;19.17;7.40;;;;;;;3.77;74.35;99358.53;1826752;78;21152;-71
2020/12/26 09:56:55;;;;;;;34.25;8.45;;;;;;;3.75;74.58;99360.28;1826516;78;21060;-71
2020/12/26 09:59:23;;;;;;;25.72;10.15;;;;;;;3.78;74.82;99355.94;1826521;78;21156;-72
2020/12/26 10:01:51;;;;;;;14.93;7.75;;;;;;;3.83;74.92;99363.56;1826558;78;21188;-71
2020/12/26 10:04:18;;;;;;;10.32;6.95;;;;;;;3.87;74.84;99369.08;1826523;78;22230;-72
2020/12/26 10:06:45;;;;;;;12.65;6.72;;;;;;;3.82;74.84;99361.86;1826432;78;20898;-71
2020/12/26 10:09:13;;;;;;;23.65;6.62;;;;;;;3.76;75.04;99368.41;1826511;78;21049;-71
2020/12/26 10:11:41;;;;;;;8.63;5.62;;;;;;;3.70;75.25;99378.78;1826506;78;21144;-70
2020/12/26 10:14:09;;;;;;;9.28;6.28;;;;;;;3.68;75.58;99386.95;1826628;78;21716;-70
2020/12/26 10:16:37;;;;;;;12.43;7.90;;;;;;;3.68;75.76;99386.52;1826528;77;21473;-70
2020/12/26 10:19:05;;;;;;;11.15;7.35;;;;;;;3.69;75.86;99387.38;1826451;78;21140;-71
2020/12/26 10:21:35;;;;;;;18.27;9.43;;;;;;;3.68;76.05;99385.67;1826563;78;21184;-70
2020/12/26 10:24:03;;;;;;;13.95;8.83;;;;;;;3.69;76.07;99379.22;1826491;78;21119;-71
2020/12/26 10:26:31;;;;;;;26.02;11.70;;;;;;;3.70;76.18;99376.21;1826566;78;21600;-71
2020/12/26 10:28:59;;;;;;;22.10;12.50;;;;;;;3.76;76.17;99378.70;1826530;78;21360;-71
2020/12/26 10:31:29;;;;;;;14.73;8.60;;;;;;;3.75;76.28;99383.43;1826461;78;21069;-71
2020/12/26 10:33:58;;;;;;;18.17;9.30;;;;;;;3.78;76.40;99393.24;1826519;78;21057;-70
2020/12/26 10:36:25;;;;;;;26.27;7.60;;;;;;;3.79;76.56;99402.66;1826528;78;21056;-70
2020/12/26 10:38:53;;;;;;;35.73;15.75;;;;;;;3.83;76.39;99408.58;1826548;78;21132;-71
2020/12/26 10:41:21;;;;;;;26.00;7.40;;;;;;;3.85;76.63;99400.84;1826518;78;21359;-71
2020/12/26 10:43:49;;;;;;;10.82;6.42;;;;;;;3.90;76.52;99406.77;1828033;78;21505;-71
2020/12/26 10:46:17;;;;;;;7.92;5.70;;;;;;;3.91;76.46;99407.19;1829626;78;21069;-71
2020/12/26 10:48:45;;;;;;;17.95;6.97;;;;;;;3.92;76.53;99405.03;1829661;78;21057;-71
2020/12/26 10:51:13;;;;;;;18.30;6.83;;;;;;;3.97;76.57;99409.67;1829710;78;21009;-71
2020/12/26 10:53:41;;;;;;;14.10;5.87;;;;;;;4.00;76.20;99404.45;1829692;78;21201;-71
2020/12/26 10:56:09;;;;;;;26.37;6.65;;;;;;;3.95;76.19;99403.27;1829693;78;21085;-71
2020/12/26 10:58:39;;;;;;;29.50;6.70;;;;;;;3.96;76.00;99401.11;1829705;78;21492;-71
2020/12/26 11:01:07;;;;;;;13.60;6.33;;;;;;;3.97;76.15;99398.09;1829758;78;21613;-72
2020/12/26 11:03:34;;;;;;;7.67;5.03;;;;;;;4.00;76.07;99388.58;1829675;78;21124;-71
2020/12/26 11:06:02;;;;;;;9.30;5.47;;;;;;;3.97;75.96;99401.52;1798318;78;21201;-71
2020/12/26 11:08:30;;;;;;;11.20;5.90;;;;;;;3.97;76.08;99398.09;1826770;78;21179;-71
2020/12/26 11:10:58;;;;;;;11.57;6.60;;;;;;;4.02;76.05;99396.28;1829668;78;21056;-70
2020/12/26 11:13:27;;;;;;;9.00;6.12;;;;;;;4.05;76.10;99393.66;1829594;78;21060;-71
2020/12/26 11:15:55;;;;;;;16.10;6.12;;;;;;;4.04;75.90;99389.38;1829786;78;21057;-71
2020/12/26 11:18:22;;;;;;;10.93;6.03;;;;;;;4.02;75.73;99384.70;1829694;77;21517;-71
2020/12/26 11:20:51;;;;;;;9.63;5.87;;;;;;;3.99;75.52;99380.91;1829600;78;21926;-70
2020/12/26 11:23:19;;;;;;;11.22;5.30;;;;;;;4.00;75.53;99378.28;1800396;78;21069;-71
2020/12/26 11:25:47;;;;;;;11.28;5.30;;;;;;;4.03;75.70;99374.81;1829644;78;21052;-71
2020/12/26 11:28:15;;;;;;;10.38;4.92;;;;;;;4.08;75.52;99379.45;1829695;78;21171;-72
2020/12/26 11:30:42;;;;;;;10.58;6.10;;;;;;;4.11;75.47;99377.69;1829704;78;21780;-71
2020/12/26 11:33:10;;;;;;;9.68;6.03;;;;;;;4.18;75.10;99368.58;1829640;78;21187;-71
2020/12/26 11:35:38;;;;;;;13.22;7.22;;;;;;;4.18;74.58;99360.42;1829644;78;21481;-71
2020/12/26 11:38:06;;;;;;;12.00;6.22;;;;;;;4.16;74.58;99355.73;1829672;78;21481;-71
2020/12/26 11:40:34;;;;;;;13.60;4.75;;;;;;;4.19;74.70;99348.41;1829646;78;21123;-71
2020/12/26 11:43:04;;;;;;;15.08;6.15;;;;;;;4.23;74.35;99350.02;1829099;77;21136;-70
2020/12/26 11:45:34;;;;;;;9.33;4.97;;;;;;;4.22;74.23;99358.18;1829726;78;21119;-71
2020/12/26 11:48:03;;;;;;;15.58;4.97;;;;;;;4.18;73.97;99353.14;1829641;78;21159;-71
2020/12/26 11:50:31;;;;;;;8.13;4.58;;;;;;;4.12;74.06;99348.50;1829645;78;21174;-71
2020/12/26 11:53:00;;;;;;;12.75;4.30;;;;;;;4.08;74.06;99351.99;1829633;78;21207;-71
2020/12/26 11:55:30;;;;;;;7.40;3.40;;;;;;;4.07;73.88;99354.59;1829672;78;21383;-71
2020/12/26 11:57:58;;;;;;;13.75;5.12;;;;;;;4.00;73.58;99343.55;1829715;78;21481;-71
2020/12/26 12:00:26;;;;;;;5.05;3.77;;;;;;;3.97;73.79;99341.05;1829656;78;21041;-71
2020/12/26 12:02:54;;;;;;;7.50;4.20;;;;;;;3.97;73.86;99338.91;1829576;78;21175;-70
2020/12/26 12:05:22;;;;;;;13.38;5.55;;;;;;;3.94;73.43;99341.09;1829610;78;21105;-71
2020/12/26 12:07:50;;;;;;;19.98;6.85;;;;;;;3.89;73.27;99348.47;1829634;78;22124;-72
2020/12/26 12:10:18;;;;;;;9.83;4.55;;;;;;;3.87;73.35;99345.92;1829595;78;21016;-71
2020/12/26 12:12:46;;;;;;;13.68;4.75;;;;;;;3.87;73.21;99347.20;1829567;78;21064;-70
2020/12/26 12:15:14;;;;;;;19.62;5.00;;;;;;;3.91;73.31;99355.73;1829644;78;21087;-71
2020/12/26 12:17:42;;;;;;;11.93;4.40;;;;;;;3.98;72.92;99356.91;1829588;77;21525;-71
2020/12/26 12:20:10;;;;;;;5.97;3.60;;;;;;;4.04;72.61;99354.64;1829582;78;21253;-71
2020/12/26 12:22:38;;;;;;;12.80;4.10;;;;;;;4.06;72.34;99352.45;1829549;78;21077;-72
2020/12/26 12:25:05;;;;;;;17.37;4.37;;;;;;;4.09;72.27;99357.99;1829600;78;21072;-71
2020/12/26 12:27:33;;;;;;;8.00;4.62;;;;;;;4.09;72.14;99351.56;1829718;78;21556;-69
2020/12/26 12:30:00;;;;;;;6.47;4.58;;;;;;;4.07;72.23;99363.16;1829664;78;21148;-71
2020/12/26 12:32:28;;;;;;;8.53;4.92;;;;;;;4.07;71.73;99374.74;1829591;78;21370;-69
2020/12/26 12:34:56;;;;;;;11.73;5.87;;;;;;;4.01;71.19;99377.84;1829580;78;21489;-70
2020/12/26 12:37:24;;;;;;;11.78;5.60;;;;;;;3.94;70.82;99378.84;1829612;78;21100;-71
2020/12/26 12:39:51;;;;;;;30.72;9.03;;;;;;;3.86;70.63;99363.52;1829622;78;21099;-71
2020/12/26 12:42:19;;;;;;;16.67;7.00;;;;;;;3.81;70.72;99365.30;1829626;78;21052;-71
2020/12/26 12:44:47;;;;;;;12.37;7.22;;;;;;;3.78;71.11;99366.67;1827423;78;21267;-70
2020/12/26 12:47:15;;;;;;;15.40;8.13;;;;;;;3.77;71.24;99376.11;1826456;78;21049;-71
2020/12/26 12:49:43;;;;;;;11.78;7.28;;;;;;;3.71;71.23;99390.77;1826419;78;21056;-71
2020/12/26 12:52:11;;;;;;;10.38;6.60;;;;;;;3.63;71.56;99404.17;1826355;78;21151;-71
2020/12/26 12:54:40;;;;;;;19.82;8.28;;;;;;;3.58;72.00;99414.98;1826431;78;21052;-71
2020/12/26 12:57:09;;;;;;;9.03;5.60;;;;;;;3.58;72.29;99411.12;1822527;78;21186;-71
2020/12/26 12:59:39;;;;;;;7.55;5.65;;;;;;;3.57;72.32;99405.56;1826310;78;21068;-71
2020/12/26 13:02:08;;;;;;;11.28;5.72;;;;;;;3.57;72.46;99424.42;1826438;78;21160;-71
2020/12/26 13:04:37;;;;;;;14.83;5.65;;;;;;;3.58;72.28;99422.70;1826336;78;21080;-70
2020/12/26 13:07:06;;;;;;;8.65;6.10;;;;;;;3.56;72.24;99434.72;1826415;78;21103;-70
2020/12/26 13:09:34;;;;;;;10.65;5.83;;;;;;;3.56;72.02;99439.87;1826400;78;23615;-70
2020/12/26 13:12:01;;;;;;;11.70;6.10;;;;;;;3.54;71.89;99451.45;1792885;78;21191;-70
2020/12/26 13:14:29;;;;;;;22.75;7.35;;;;;;;3.50;71.60;99434.36;1826354;78;21119;-70
2020/12/26 13:16:57;;;;;;;26.07;13.53;;;;;;;3.44;71.55;99435.28;1826211;77;21159;-70
2020/12/26 13:19:25;;;;;;;27.77;16.62;;;;;;;3.40;71.64;99432.77;1826438;78;21218;-70
2020/12/26 13:21:54;;;;;;;46.70;32.13;;;;;;;3.34;71.76;99427.30;1826417;78;21963;-70
2020/12/26 13:24:21;;;;;;;35.78;24.25;;;;;;;3.33;71.87;99449.16;1826329;78;21151;-70
2020/12/26 13:26:49;;;;;;;93.40;51.68;;;;;;;3.28;71.76;99442.78;1826378;78;21050;-70
2020/12/26 13:29:17;;;;;;;92.17;49.27;;;;;;;3.23;71.89;99416.72;1826479;78;21045;-70
2020/12/26 13:31:45;;;;;;;50.08;34.40;;;;;;;3.21;72.05;99410.31;1826591;78;21120;-71
2020/12/26 13:34:13;;;;;;;49.45;32.13;;;;;;;3.19;72.12;99414.65;1793160;78;22045;-71
2020/12/26 13:36:40;;;;;;;53.25;36.85;;;;;;;3.16;72.27;99418.97;1826483;78;21143;-70
2020/12/26 13:39:08;;;;;;;43.02;23.27;;;;;;;3.13;72.45;99437.84;1826495;78;21052;-70
2020/12/26 13:41:36;;;;;;;27.98;13.35;;;;;;;3.10;72.72;99434.88;1826552;78;21120;-70
2020/12/26 13:44:03;;;;;;;21.25;12.70;;;;;;;3.13;73.02;99436.99;1826337;78;21195;-71
2020/12/26 13:46:31;;;;;;;17.77;8.30;;;;;;;3.15;73.07;99436.11;1826599;78;21375;-71
2020/12/26 13:48:59;;;;;;;38.02;9.85;;;;;;;3.17;73.09;99451.51;1826500;78;21096;-71
2020/12/26 13:51:27;;;;;;;14.05;6.62;;;;;;;3.15;73.03;99460.52;1826532;78;21065;-70
2020/12/26 13:53:55;;;;;;;24.95;9.70;;;;;;;3.08;73.06;99444.31;1826504;78;21568;-70
2020/12/26 13:56:24;;;;;;;22.00;8.53;;;;;;;3.02;73.16;99446.95;1826566;78;21124;-70
2020/12/26 13:58:53;;;;;;;20.23;5.62;;;;;;;2.96;73.37;99451.33;1825885;78;21163;-71
